Forside
METAR-TAF:

METAR-TAF

Lufthavne :

Koror, Babeldaob, Palau

Breddekreds: 07-22N, længdekreds: 134-32E, højde: 54 m

Aktuelle vejr

Denne rapport blev lavet for 1 time og 4 minutter siden, kl. 01:55 UTC
Vind 11 kt fra nordnordøst med vindstød på up til 17 kt
Temperatur 30°C
Fugtighed 66%
Tryk 1010 hPa
Sigt: 24.1 km
Spredte skyer i en højde af 1600 ft
Brudte skyer i en højde af 12000 ft
Brudte skyer i en højde af 30000 ft

METAR: PTRO 160155Z 03011G17KT 15SM SCT016 BKN120 BKN300 30/23 A2982

Tid: 11:59 (02:59 UTC)

Vejrudsigter

Denne rapport blev lavet for 3 timer og 29 minutter siden, kl. 23:30 UTC
Foreløbig gælder fra 16 på 00 UTC til 16 på 24 UTC
Vind 11 kt fra nordnordøst
Sigt: 10 km
Nogle få skyer i en højde af 1800 ft
Spredte skyer i en højde af 5000 ft
Fra 16 på 0800 UTC
Vind 8 kt fra nordnordøst
Sigt: 10 km
Nogle få skyer i en højde af 1800 ft
Spredte skyer i en højde af 5000 ft
byger i nærheden

TAF: PTRO 152330Z 1600/1624 03011KT P6SM FEW018 SCT050 FM160800 02008KT P6SM VCSH FEW018 SCT050

Vejrobservationer og prognoser fra mere end 4000 lufthavne (METAR og TAF).

De gule og røde prikker repræsenterer de meteorologiske stationer.

Flyt musen over at se navnet på stationen.

Så klik over at se vejr observationer og prognoser.

At skifte det kort: Klik på de grønne knapper med et sort kors for at zoome ind; på den grønne knap med en bindestreg for at zoome ud; eller på de grønne pile for tilstødende kort.


METAR-TAF: